sensor_id;sensor_type;location;lat;lon;timestamp;pressure;altitude;pressure_sealevel;temperature;humidity
62152;BME280;48139;47.474;19.034;2022-11-15T04:41:42;100818.31;;;6.36;100.00
62152;BME280;48139;47.474;19.034;2022-11-15T04:45:04;100818.31;;;6.36;100.00
62152;BME280;48139;47.474;19.034;2022-11-15T04:48:26;100823.53;;;5.96;100.00
62152;BME280;48139;47.474;19.034;2022-11-15T04:51:47;100815.72;;;5.96;100.00
62152;BME280;48139;47.474;19.034;2022-11-15T04:55:09;100800.72;;;6.09;100.00
62152;BME280;48139;47.474;19.034;2022-11-15T04:58:31;100798.69;;;6.22;100.00
62152;BME280;48139;47.474;19.034;2022-11-15T05:01:52;100800.41;;;6.23;100.00
62152;BME280;48139;47.474;19.034;2022-11-15T05:05:13;100796.84;;;6.27;100.00
62152;BME280;48139;47.474;19.034;2022-11-15T05:08:34;100795.81;;;6.35;100.00
62152;BME280;48139;47.474;19.034;2022-11-15T05:11:55;100807.00;;;6.37;100.00
62152;BME280;48139;47.474;19.034;2022-11-15T05:15:17;100807.84;;;6.39;100.00
62152;BME280;48139;47.474;19.034;2022-11-15T05:18:38;100813.88;;;6.41;100.00
62152;BME280;48139;47.474;19.034;2022-11-15T05:22:01;100812.78;;;6.50;100.00
62152;BME280;48139;47.474;19.034;2022-11-15T05:25:22;100809.06;;;6.62;100.00
62152;BME280;48139;47.474;19.034;2022-11-15T05:28:43;100809.84;;;6.65;100.00
62152;BME280;48139;47.474;19.034;2022-11-15T05:32:05;100807.91;;;6.73;100.00
62152;BME280;48139;47.474;19.034;2022-11-15T05:35:32;100807.94;;;6.72;100.00
62152;BME280;48139;47.474;19.034;2022-11-15T05:38:55;100806.16;;;6.74;100.00
62152;BME280;48139;47.474;19.034;2022-11-15T05:42:16;100805.97;;;6.81;100.00
62152;BME280;48139;47.474;19.034;2022-11-15T05:45:37;100807.59;;;6.87;100.00
62152;BME280;48139;47.474;19.034;2022-11-15T05:48:58;100795.16;;;6.98;100.00
62152;BME280;48139;47.474;19.034;2022-11-15T05:52:23;100787.22;;;7.03;100.00
62152;BME280;48139;47.474;19.034;2022-11-15T05:55:46;100794.09;;;7.05;100.00
62152;BME280;48139;47.474;19.034;2022-11-15T05:59:08;100791.50;;;7.05;100.00
62152;BME280;48139;47.474;19.034;2022-11-15T06:02:30;100798.53;;;7.00;100.00
62152;BME280;48139;47.474;19.034;2022-11-15T06:05:51;100799.25;;;7.07;100.00
62152;BME280;48139;47.474;19.034;2022-11-15T06:09:12;100794.13;;;7.04;100.00
62152;BME280;48139;47.474;19.034;2022-11-15T06:12:33;100784.75;;;6.97;100.00
62152;BME280;48139;47.474;19.034;2022-11-15T06:15:55;100780.28;;;7.02;100.00
62152;BME280;48139;47.474;19.034;2022-11-15T06:19:16;100789.37;;;6.85;100.00
62152;BME280;48139;47.474;19.034;2022-11-15T06:22:38;100798.50;;;7.02;100.00
62152;BME280;48139;47.474;19.034;2022-11-15T06:26:00;100796.75;;;7.02;100.00
62152;BME280;48139;47.474;19.034;2022-11-15T06:29:21;100799.47;;;6.99;100.00
62152;BME280;48139;47.474;19.034;2022-11-15T06:32:42;100795.84;;;7.05;100.00
62152;BME280;48139;47.474;19.034;2022-11-15T06:36:04;100792.41;;;7.03;100.00
62152;BME280;48139;47.474;19.034;2022-11-15T06:39:26;100797.34;;;7.13;100.00
62152;BME280;48139;47.474;19.034;2022-11-15T06:42:47;100795.53;;;7.17;100.00
62152;BME280;48139;47.474;19.034;2022-11-15T06:46:08;100802.38;;;7.19;100.00
62152;BME280;48139;47.474;19.034;2022-11-15T06:49:28;100799.56;;;7.28;100.00
62152;BME280;48139;47.474;19.034;2022-11-15T06:52:50;100801.31;;;7.28;100.00
62152;BME280;48139;47.474;19.034;2022-11-15T06:56:11;100801.38;;;7.25;100.00
62152;BME280;48139;47.474;19.034;2022-11-15T06:59:32;100792.56;;;7.31;100.00
62152;BME280;48139;47.474;19.034;2022-11-15T07:03:00;100791.53;;;7.36;100.00
62152;BME280;48139;47.474;19.034;2022-11-15T07:06:22;100794.03;;;7.39;100.00
62152;BME280;48139;47.474;19.034;2022-11-15T07:09:43;100801.03;;;7.37;100.00
62152;BME280;48139;47.474;19.034;2022-11-15T07:13:04;100796.94;;;7.28;100.00
62152;BME280;48139;47.474;19.034;2022-11-15T07:16:25;100789.63;;;7.43;100.00
62152;BME280;48139;47.474;19.034;2022-11-15T07:19:46;100788.47;;;7.53;100.00
62152;BME280;48139;47.474;19.034;2022-11-15T07:23:07;100783.22;;;7.54;100.00
62152;BME280;48139;47.474;19.034;2022-11-15T07:26:28;100780.66;;;7.53;100.00
62152;BME280;48139;47.474;19.034;2022-11-15T07:29:49;100771.53;;;7.67;100.00
62152;BME280;48139;47.474;19.034;2022-11-15T07:33:10;100774.91;;;7.71;100.00
62152;BME280;48139;47.474;19.034;2022-11-15T07:36:30;100784.50;;;7.69;100.00
62152;BME280;48139;47.474;19.034;2022-11-15T07:39:52;100783.84;;;7.62;100.00
62152;BME280;48139;47.474;19.034;2022-11-15T07:43:13;100781.81;;;7.74;100.00
62152;BME280;48139;47.474;19.034;2022-11-15T07:46:34;100778.16;;;7.79;100.00
62152;BME280;48139;47.474;19.034;2022-11-15T07:49:55;100771.31;;;7.75;100.00
62152;BME280;48139;47.474;19.034;2022-11-15T07:53:16;100769.19;;;7.88;100.00
62152;BME280;48139;47.474;19.034;2022-11-15T07:56:44;100771.94;;;7.83;100.00
62152;BME280;48139;47.474;19.034;2022-11-15T08:00:06;100783.44;;;7.76;100.00
62152;BME280;48139;47.474;19.034;2022-11-15T08:03:29;100785.03;;;7.82;100.00
62152;BME280;48139;47.474;19.034;2022-11-15T08:06:51;100779.41;;;7.95;100.00
62152;BME280;48139;47.474;19.034;2022-11-15T08:10:13;100772.22;;;8.03;99.40
62152;BME280;48139;47.474;19.034;2022-11-15T08:13:37;100766.00;;;8.07;100.00
62152;BME280;48139;47.474;19.034;2022-11-15T08:16:58;100767.66;;;8.10;100.00
62152;BME280;48139;47.474;19.034;2022-11-15T08:20:22;100761.66;;;8.06;100.00
62152;BME280;48139;47.474;19.034;2022-11-15T08:23:43;100755.41;;;8.12;100.00
62152;BME280;48139;47.474;19.034;2022-11-15T08:27:04;100753.72;;;8.11;100.00
62152;BME280;48139;47.474;19.034;2022-11-15T08:30:26;100737.16;;;8.12;100.00
62152;BME280;48139;47.474;19.034;2022-11-15T08:33:47;100739.91;;;8.07;100.00
62152;BME280;48139;47.474;19.034;2022-11-15T08:37:11;100732.13;;;8.06;100.00
62152;BME280;48139;47.474;19.034;2022-11-15T08:40:32;100755.03;;;7.96;100.00
62152;BME280;48139;47.474;19.034;2022-11-15T08:43:53;100739.94;;;8.06;100.00
62152;BME280;48139;47.474;19.034;2022-11-15T08:47:14;100742.28;;;8.15;100.00
62152;BME280;48139;47.474;19.034;2022-11-15T08:50:36;100733.09;;;8.03;100.00
62152;BME280;48139;47.474;19.034;2022-11-15T08:53:57;100726.00;;;8.07;100.00
62152;BME280;48139;47.474;19.034;2022-11-15T08:57:18;100724.87;;;8.16;100.00
62152;BME280;48139;47.474;19.034;2022-11-15T09:00:39;100721.63;;;8.07;100.00
62152;BME280;48139;47.474;19.034;2022-11-15T09:04:00;100721.87;;;8.00;100.00
62152;BME280;48139;47.474;19.034;2022-11-15T09:07:20;100725.97;;;8.08;100.00
62152;BME280;48139;47.474;19.034;2022-11-15T09:10:42;100720.12;;;8.00;100.00
62152;BME280;48139;47.474;19.034;2022-11-15T09:14:02;100715.06;;;8.24;100.00
62152;BME280;48139;47.474;19.034;2022-11-15T09:17:23;100702.38;;;8.39;100.00
62152;BME280;48139;47.474;19.034;2022-11-15T09:20:47;100699.56;;;8.72;100.00
62152;BME280;48139;47.474;19.034;2022-11-15T09:24:07;100693.78;;;8.87;100.00
62152;BME280;48139;47.474;19.034;2022-11-15T09:27:29;100701.72;;;8.85;100.00
62152;BME280;48139;47.474;19.034;2022-11-15T09:30:51;100681.25;;;8.98;99.08
62152;BME280;48139;47.474;19.034;2022-11-15T09:34:11;100691.81;;;8.94;100.00
62152;BME280;48139;47.474;19.034;2022-11-15T09:37:32;100697.13;;;8.92;100.00
62152;BME280;48139;47.474;19.034;2022-11-15T09:48:42;100690.56;;;9.05;100.00
62152;BME280;48139;47.474;19.034;2022-11-15T09:51:52;100691.13;;;9.13;100.00
62152;BME280;48139;47.474;19.034;2022-11-15T09:54:55;100681.03;;;9.04;100.00
62152;BME280;48139;47.474;19.034;2022-11-15T09:58:09;100672.22;;;8.82;100.00
62152;BME280;48139;47.474;19.034;2022-11-15T10:01:21;100680.03;;;9.07;100.00
62152;BME280;48139;47.474;19.034;2022-11-15T10:04:28;100675.56;;;9.10;100.00
62152;BME280;48139;47.474;19.034;2022-11-15T10:10:59;100666.84;;;9.35;97.18
62152;BME280;48139;47.474;19.034;2022-11-15T10:14:25;100664.09;;;9.14;96.68
62152;BME280;48139;47.474;19.034;2022-11-15T10:20:49;100654.34;;;8.95;97.94
62152;BME280;48139;47.474;19.034;2022-11-15T10:23:53;100641.41;;;8.92;98.87
62152;BME280;48139;47.474;19.034;2022-11-15T10:26:56;100633.72;;;8.87;99.52
62152;BME280;48139;47.474;19.034;2022-11-15T10:29:59;100636.72;;;8.76;100.00
62152;BME280;48139;47.474;19.034;2022-11-15T10:36:21;100632.66;;;8.93;100.00
62152;BME280;48139;47.474;19.034;2022-11-15T10:39:27;100624.44;;;9.03;99.16
62152;BME280;48139;47.474;19.034;2022-11-15T10:42:30;100620.28;;;8.98;99.14
62152;BME280;48139;47.474;19.034;2022-11-15T10:45:33;100614.75;;;8.82;100.00
62152;BME280;48139;47.474;19.034;2022-11-15T10:48:36;100615.34;;;8.90;100.00
62152;BME280;48139;47.474;19.034;2022-11-15T10:58:41;100594.66;;;9.07;97.39
62152;BME280;48139;47.474;19.034;2022-11-15T11:01:46;100597.19;;;9.10;96.50
62152;BME280;48139;47.474;19.034;2022-11-15T11:04:50;100591.19;;;9.07;97.58
62152;BME280;48139;47.474;19.034;2022-11-15T11:07:59;100579.56;;;9.15;97.67
62152;BME280;48139;47.474;19.034;2022-11-15T11:11:04;100567.22;;;9.19;96.27
62152;BME280;48139;47.474;19.034;2022-11-15T11:20:49;100567.75;;;9.05;97.91
62152;BME280;48139;47.474;19.034;2022-11-15T11:24:08;100572.34;;;8.99;98.26
62152;BME280;48139;47.474;19.034;2022-11-15T11:34:49;100568.22;;;8.68;99.45
62152;BME280;48139;47.474;19.034;2022-11-15T11:37:52;100559.88;;;8.59;99.83
62152;BME280;48139;47.474;19.034;2022-11-15T11:47:32;100563.53;;;8.55;100.00
62152;BME280;48139;47.474;19.034;2022-11-15T11:50:40;100547.31;;;8.45;100.00
62152;BME280;48139;47.474;19.034;2022-11-15T11:54:06;100535.03;;;8.48;100.00
62152;BME280;48139;47.474;19.034;2022-11-15T11:57:23;100543.59;;;8.52;100.00
62152;BME280;48139;47.474;19.034;2022-11-15T12:00:33;100541.81;;;8.53;100.00
62152;BME280;48139;47.474;19.034;2022-11-15T12:03:52;100545.37;;;8.50;100.00
62152;BME280;48139;47.474;19.034;2022-11-15T12:07:01;100530.44;;;8.55;100.00
62152;BME280;48139;47.474;19.034;2022-11-15T12:10:29;100518.00;;;8.62;100.00
62152;BME280;48139;47.474;19.034;2022-11-15T12:13:34;100508.34;;;8.64;100.00
62152;BME280;48139;47.474;19.034;2022-11-15T12:16:42;100513.97;;;8.53;100.00
62152;BME280;48139;47.474;19.034;2022-11-15T12:19:45;100503.47;;;8.55;100.00
62152;BME280;48139;47.474;19.034;2022-11-15T12:22:58;100494.78;;;8.54;100.00
62152;BME280;48139;47.474;19.034;2022-11-15T12:26:25;100493.81;;;8.57;100.00
62152;BME280;48139;47.474;19.034;2022-11-15T12:29:35;100488.75;;;8.52;100.00
62152;BME280;48139;47.474;19.034;2022-11-15T12:32:47;100490.09;;;8.62;100.00
62152;BME280;48139;47.474;19.034;2022-11-15T12:35:58;100495.50;;;8.58;100.00
62152;BME280;48139;47.474;19.034;2022-11-15T12:39:09;100501.59;;;8.58;100.00
62152;BME280;48139;47.474;19.034;2022-11-15T12:54:52;100456.47;;;8.55;100.00
62152;BME280;48139;47.474;19.034;2022-11-15T12:57:54;100458.94;;;8.58;100.00
62152;BME280;48139;47.474;19.034;2022-11-15T13:00:58;100453.00;;;8.54;100.00
62152;BME280;48139;47.474;19.034;2022-11-15T13:10:42;100456.22;;;8.37;100.00
62152;BME280;48139;47.474;19.034;2022-11-15T13:13:45;100458.81;;;8.37;100.00
62152;BME280;48139;47.474;19.034;2022-11-15T13:16:47;100471.16;;;8.34;100.00
62152;BME280;48139;47.474;19.034;2022-11-15T13:20:07;100462.06;;;8.44;100.00
62152;BME280;48139;47.474;19.034;2022-11-15T13:23:15;100455.91;;;8.46;100.00
62152;BME280;48139;47.474;19.034;2022-11-15T13:26:18;100463.06;;;8.41;100.00
62152;BME280;48139;47.474;19.034;2022-11-15T13:29:22;100451.31;;;8.53;100.00
62152;BME280;48139;47.474;19.034;2022-11-15T13:32:25;100450.94;;;8.62;100.00
62152;BME280;48139;47.474;19.034;2022-11-15T13:35:29;100435.69;;;8.52;100.00
62152;BME280;48139;47.474;19.034;2022-11-15T13:38:38;100439.28;;;8.49;100.00
62152;BME280;48139;47.474;19.034;2022-11-15T13:41:47;100437.34;;;8.54;100.00
62152;BME280;48139;47.474;19.034;2022-11-15T13:47:58;100424.09;;;8.59;100.00
62152;BME280;48139;47.474;19.034;2022-11-15T13:51:03;100411.19;;;8.56;100.00
62152;BME280;48139;47.474;19.034;2022-11-15T13:54:20;100411.25;;;8.54;100.00
62152;BME280;48139;47.474;19.034;2022-11-15T13:57:29;100411.25;;;8.54;100.00
62152;BME280;48139;47.474;19.034;2022-11-15T14:00:41;100407.50;;;8.61;100.00
62152;BME280;48139;47.474;19.034;2022-11-15T14:03:56;100409.25;;;8.61;100.00
62152;BME280;48139;47.474;19.034;2022-11-15T14:07:01;100403.13;;;8.38;100.00
62152;BME280;48139;47.474;19.034;2022-11-15T14:10:30;100398.69;;;8.40;100.00
62152;BME280;48139;47.474;19.034;2022-11-15T14:13:33;100398.06;;;8.34;100.00
62152;BME280;48139;47.474;19.034;2022-11-15T14:19:42;100415.28;;;8.15;100.00
62152;BME280;48139;47.474;19.034;2022-11-15T14:22:56;100405.78;;;8.12;100.00
62152;BME280;48139;47.474;19.034;2022-11-15T14:25:59;100391.22;;;8.06;100.00
62152;BME280;48139;47.474;19.034;2022-11-15T14:29:21;100387.94;;;8.01;100.00
62152;BME280;48139;47.474;19.034;2022-11-15T14:32:26;100384.47;;;8.01;100.00
62152;BME280;48139;47.474;19.034;2022-11-15T14:35:28;100380.97;;;8.02;100.00
62152;BME280;48139;47.474;19.034;2022-11-15T14:38:31;100373.72;;;8.10;100.00
62152;BME280;48139;47.474;19.034;2022-11-15T14:41:36;100371.38;;;8.02;100.00
62152;BME280;48139;47.474;19.034;2022-11-15T14:44:42;100362.87;;;7.97;100.00
62152;BME280;48139;47.474;19.034;2022-11-15T14:47:47;100364.09;;;7.87;100.00
62152;BME280;48139;47.474;19.034;2022-11-15T14:50:53;100362.69;;;8.02;100.00
62152;BME280;48139;47.474;19.034;2022-11-15T14:53:55;100350.31;;;8.07;100.00
62152;BME280;48139;47.474;19.034;2022-11-15T14:56:57;100357.84;;;8.16;100.00
62152;BME280;48139;47.474;19.034;2022-11-15T15:00:00;100357.94;;;8.13;100.00
62152;BME280;48139;47.474;19.034;2022-11-15T15:03:13;100346.06;;;8.28;100.00
62152;BME280;48139;47.474;19.034;2022-11-15T15:06:15;100347.69;;;8.32;100.00
62152;BME280;48139;47.474;19.034;2022-11-15T15:09:19;100355.47;;;8.33;100.00
62152;BME280;48139;47.474;19.034;2022-11-15T15:12:23;100349.53;;;8.28;100.00
62152;BME280;48139;47.474;19.034;2022-11-15T15:15:33;100352.25;;;8.25;100.00
62152;BME280;48139;47.474;19.034;2022-11-15T15:18:35;100350.06;;;8.15;100.00
62152;BME280;48139;47.474;19.034;2022-11-15T15:21:38;100345.59;;;8.18;100.00
62152;BME280;48139;47.474;19.034;2022-11-15T15:24:41;100335.34;;;8.12;100.00
62152;BME280;48139;47.474;19.034;2022-11-15T15:27:44;100326.53;;;8.16;100.00
62152;BME280;48139;47.474;19.034;2022-11-15T15:30:49;100336.91;;;8.18;100.00
62152;BME280;48139;47.474;19.034;2022-11-15T15:33:52;100340.56;;;8.12;100.00
62152;BME280;48139;47.474;19.034;2022-11-15T15:37:26;100343.97;;;8.14;100.00
62152;BME280;48139;47.474;19.034;2022-11-15T15:40:30;100346.72;;;8.11;100.00
62152;BME280;48139;47.474;19.034;2022-11-15T15:43:33;100350.41;;;8.05;100.00
62152;BME280;48139;47.474;19.034;2022-11-15T15:46:35;100348.81;;;8.01;100.00
62152;BME280;48139;47.474;19.034;2022-11-15T15:49:38;100341.87;;;8.00;100.00
62152;BME280;48139;47.474;19.034;2022-11-15T15:52:40;100347.94;;;8.01;100.00
62152;BME280;48139;47.474;19.034;2022-11-15T15:55:42;100345.34;;;8.01;100.00
62152;BME280;48139;47.474;19.034;2022-11-15T15:58:45;100335.56;;;8.06;100.00
62152;BME280;48139;47.474;19.034;2022-11-15T16:01:47;100328.69;;;8.05;100.00
62152;BME280;48139;47.474;19.034;2022-11-15T16:04:52;100327.84;;;8.04;100.00
62152;BME280;48139;47.474;19.034;2022-11-15T16:07:55;100332.97;;;8.06;100.00
62152;BME280;48139;47.474;19.034;2022-11-15T16:10:58;100332.37;;;7.99;100.00
62152;BME280;48139;47.474;19.034;2022-11-15T16:14:00;100333.94;;;8.03;100.00
62152;BME280;48139;47.474;19.034;2022-11-15T16:17:03;100331.28;;;8.05;100.00
62152;BME280;48139;47.474;19.034;2022-11-15T16:20:06;100333.06;;;8.04;100.00
62152;BME280;48139;47.474;19.034;2022-11-15T16:23:14;100330.50;;;8.03;100.00
62152;BME280;48139;47.474;19.034;2022-11-15T16:26:28;100332.97;;;8.06;100.00
62152;BME280;48139;47.474;19.034;2022-11-15T16:29:31;100332.63;;;8.15;100.00
62152;BME280;48139;47.474;19.034;2022-11-15T16:32:33;100329.00;;;7.96;100.00
62152;BME280;48139;47.474;19.034;2022-11-15T16:35:36;100325.44;;;7.98;100.00
62152;BME280;48139;47.474;19.034;2022-11-15T16:38:38;100320.00;;;8.04;100.00
62152;BME280;48139;47.474;19.034;2022-11-15T16:41:41;100327.22;;;7.98;100.00
62152;BME280;48139;47.474;19.034;2022-11-15T16:44:48;100318.41;;;8.00;100.00
62152;BME280;48139;47.474;19.034;2022-11-15T16:47:52;100320.28;;;7.97;100.00
62152;BME280;48139;47.474;19.034;2022-11-15T16:50:57;100304.22;;;8.07;100.00
62152;BME280;48139;47.474;19.034;2022-11-15T16:54:00;100308.72;;;8.04;100.00
62152;BME280;48139;47.474;19.034;2022-11-15T16:57:02;100304.63;;;7.97;100.00
